This is the latest recevied weather packets stored in our database for station/object EA1RCC-1. If no packets are shown the sender has not sent any weather packets the latest 10 day(s).
| Time | Temp. | Humidity | Pressure | Rain* | Wind** | Luminosity | Snow |
|---|---|---|---|---|---|---|---|
| 1777933339 | 6.11° C | 71% | 1016 hPa | 0 mm | - | - | - |
| 1777916874 | 15.56° C | 12% | 1012 hPa | 0 mm | - | - | - |
| 1777908669 | 16.11° C | 12% | 1012 hPa | 0 mm | - | - | - |
| 1777907467 | 16.11° C | 12% | 1012 hPa | 0 mm | - | - | - |
| 1777904933 | 15.56° C | 12% | 1013 hPa | 0 mm | - | - | - |
| 1777900335 | 15.56° C | 12% | 1013 hPa | 0 mm | - | - | - |
| 1777899133 | 15° C | 12% | 1013 hPa | 0 mm | - | - | - |
| 1777892389 | 14.44° C | 13% | 1013 hPa | 0 mm | - | - | - |
| 1777890455 | 13.33° C | 13% | 1014 hPa | 0 mm | - | - | - |
| 1777885248 | 8.89° C | 22% | 1014 hPa | 0 mm | - | - | - |
| 1777884647 | 9.44° C | 22% | 1014 hPa | 0 mm | - | - | - |
| 1777881038 | 9.44° C | 33% | 1014 hPa | 0 mm | - | - | - |
| 1777870427 | 6.67° C | 93% | 1014 hPa | 0 mm | - | - | - |
| 1777867420 | 3.89° C | 93% | 1014 hPa | 0 mm | - | - | - |
| 1777863550 | 6.11° C | 93% | 1014 hPa | 0 mm | - | - | - |
| 1777861747 | 7.78° C | 93% | 1014 hPa | 0 mm | - | - | - |
| 1777856206 | 6.67° C | 93% | 1014 hPa | 0 mm | - | - | - |
| 1777855004 | 7.78° C | 93% | 1014 hPa | 0 mm | - | - | - |
| 1777850193 | 6.11° C | 87% | 1014 hPa | 0 mm | - | - | - |
| 1777839584 | 8.89° C | 67% | 1013 hPa | 0 mm | - | - | - |
| 1777835245 | 12.22° C | 67% | 1012 hPa | 0 mm | - | - | - |
| 1777833913 | 12.78° C | 67% | 1011 hPa | 0 mm | - | - | - |
| 1777825498 | 17.78° C | 11% | 1010 hPa | 0 mm | - | - | - |
| 1777824896 | 17.22° C | 11% | 1010 hPa | 0 mm | - | - | - |
| 1777824295 | 16.67° C | 11% | 1010 hPa | 0 mm | - | - | - |
* Rain latest hour (hover to see other rain measurements)
** Current wind speed in m/s (hover to see current wind gust speed)